sensor_id;sensor_type;location;lat;lon;timestamp;P1;durP1;ratioP1;P2;durP2;ratioP2
13847;SDS011;6994;49.752;6.094;2023-09-19T00:01:43;5.47;;;2.25;;
13847;SDS011;6994;49.752;6.094;2023-09-19T00:04:13;6.12;;;2.22;;
13847;SDS011;6994;49.752;6.094;2023-09-19T00:06:40;3.37;;;2.30;;
13847;SDS011;6994;49.752;6.094;2023-09-19T00:09:07;5.85;;;2.70;;
13847;SDS011;6994;49.752;6.094;2023-09-19T00:11:37;6.07;;;2.62;;
13847;SDS011;6994;49.752;6.094;2023-09-19T00:14:04;9.20;;;3.28;;
13847;SDS011;6994;49.752;6.094;2023-09-19T00:16:31;5.00;;;2.45;;
13847;SDS011;6994;49.752;6.094;2023-09-19T00:18:59;8.35;;;2.45;;
13847;SDS011;6994;49.752;6.094;2023-09-19T00:21:26;8.45;;;2.45;;
13847;SDS011;6994;49.752;6.094;2023-09-19T00:23:53;6.80;;;2.80;;
13847;SDS011;6994;49.752;6.094;2023-09-19T00:26:20;6.80;;;3.05;;
13847;SDS011;6994;49.752;6.094;2023-09-19T00:28:47;5.28;;;2.75;;
13847;SDS011;6994;49.752;6.094;2023-09-19T00:31:15;5.65;;;2.28;;
13847;SDS011;6994;49.752;6.094;2023-09-19T00:33:42;6.37;;;3.08;;
13847;SDS011;6994;49.752;6.094;2023-09-19T00:36:09;7.40;;;3.05;;
13847;SDS011;6994;49.752;6.094;2023-09-19T00:38:37;5.70;;;2.28;;
13847;SDS011;6994;49.752;6.094;2023-09-19T00:41:05;7.70;;;2.37;;
13847;SDS011;6994;49.752;6.094;2023-09-19T00:43:32;4.65;;;2.15;;
13847;SDS011;6994;49.752;6.094;2023-09-19T00:46:00;3.60;;;2.33;;
13847;SDS011;6994;49.752;6.094;2023-09-19T00:48:27;4.37;;;2.30;;
13847;SDS011;6994;49.752;6.094;2023-09-19T00:50:55;5.53;;;2.28;;
13847;SDS011;6994;49.752;6.094;2023-09-19T00:53:23;5.82;;;2.75;;
13847;SDS011;6994;49.752;6.094;2023-09-19T00:55:50;6.22;;;2.20;;
13847;SDS011;6994;49.752;6.094;2023-09-19T00:58:18;4.15;;;2.22;;
13847;SDS011;6994;49.752;6.094;2023-09-19T01:00:44;6.70;;;2.67;;
13847;SDS011;6994;49.752;6.094;2023-09-19T01:03:11;4.03;;;2.47;;
13847;SDS011;6994;49.752;6.094;2023-09-19T01:05:39;7.30;;;3.00;;
13847;SDS011;6994;49.752;6.094;2023-09-19T01:08:06;2.85;;;2.15;;
13847;SDS011;6994;49.752;6.094;2023-09-19T01:10:33;6.57;;;2.10;;
13847;SDS011;6994;49.752;6.094;2023-09-19T01:16:10;5.05;;;2.00;;
13847;SDS011;6994;49.752;6.094;2023-09-19T01:21:15;6.95;;;2.70;;
13847;SDS011;6994;49.752;6.094;2023-09-19T01:24:07;5.43;;;2.65;;
13847;SDS011;6994;49.752;6.094;2023-09-19T01:29:01;7.12;;;1.90;;
13847;SDS011;6994;49.752;6.094;2023-09-19T01:31:28;3.10;;;1.50;;
13847;SDS011;6994;49.752;6.094;2023-09-19T01:33:55;4.80;;;1.90;;
13847;SDS011;6994;49.752;6.094;2023-09-19T01:36:24;4.97;;;1.98;;
13847;SDS011;6994;49.752;6.094;2023-09-19T01:38:51;4.43;;;2.20;;
13847;SDS011;6994;49.752;6.094;2023-09-19T01:41:21;4.40;;;1.70;;
13847;SDS011;6994;49.752;6.094;2023-09-19T01:43:47;5.37;;;2.05;;
13847;SDS011;6994;49.752;6.094;2023-09-19T01:46:14;6.62;;;2.20;;
13847;SDS011;6994;49.752;6.094;2023-09-19T01:48:43;3.72;;;1.75;;
13847;SDS011;6994;49.752;6.094;2023-09-19T01:51:09;6.57;;;2.40;;
13847;SDS011;6994;49.752;6.094;2023-09-19T01:59:06;5.15;;;1.98;;
13847;SDS011;6994;49.752;6.094;2023-09-19T02:01:31;6.15;;;1.85;;
13847;SDS011;6994;49.752;6.094;2023-09-19T02:03:58;6.28;;;1.77;;
13847;SDS011;6994;49.752;6.094;2023-09-19T02:06:26;4.55;;;1.58;;
13847;SDS011;6994;49.752;6.094;2023-09-19T02:08:53;4.47;;;1.58;;
13847;SDS011;6994;49.752;6.094;2023-09-19T02:11:21;5.87;;;1.83;;
13847;SDS011;6994;49.752;6.094;2023-09-19T02:13:49;6.45;;;2.50;;
13847;SDS011;6994;49.752;6.094;2023-09-19T02:16:17;4.28;;;2.20;;
13847;SDS011;6994;49.752;6.094;2023-09-19T02:18:45;3.40;;;1.40;;
13847;SDS011;6994;49.752;6.094;2023-09-19T02:21:12;4.85;;;1.70;;
13847;SDS011;6994;49.752;6.094;2023-09-19T02:23:39;12.15;;;2.17;;
13847;SDS011;6994;49.752;6.094;2023-09-19T02:26:06;5.90;;;2.00;;
13847;SDS011;6994;49.752;6.094;2023-09-19T02:28:34;3.53;;;1.80;;
13847;SDS011;6994;49.752;6.094;2023-09-19T02:31:01;7.82;;;2.30;;
13847;SDS011;6994;49.752;6.094;2023-09-19T02:33:28;5.90;;;1.90;;
13847;SDS011;6994;49.752;6.094;2023-09-19T02:35:55;4.00;;;1.70;;
13847;SDS011;6994;49.752;6.094;2023-09-19T02:38:25;3.78;;;1.37;;
13847;SDS011;6994;49.752;6.094;2023-09-19T02:40:52;6.95;;;2.33;;
13847;SDS011;6994;49.752;6.094;2023-09-19T02:43:20;7.12;;;1.50;;
13847;SDS011;6994;49.752;6.094;2023-09-19T02:45:47;4.87;;;1.65;;
13847;SDS011;6994;49.752;6.094;2023-09-19T02:48:14;4.53;;;1.87;;
13847;SDS011;6994;49.752;6.094;2023-09-19T02:50:42;2.58;;;1.50;;
13847;SDS011;6994;49.752;6.094;2023-09-19T02:53:09;5.57;;;1.40;;
13847;SDS011;6994;49.752;6.094;2023-09-19T02:55:37;5.45;;;1.67;;
13847;SDS011;6994;49.752;6.094;2023-09-19T02:58:05;5.85;;;1.92;;
13847;SDS011;6994;49.752;6.094;2023-09-19T03:00:32;5.25;;;1.77;;
13847;SDS011;6994;49.752;6.094;2023-09-19T03:03:00;5.70;;;1.60;;
13847;SDS011;6994;49.752;6.094;2023-09-19T03:05:27;5.78;;;1.95;;
13847;SDS011;6994;49.752;6.094;2023-09-19T03:07:54;7.45;;;2.05;;
13847;SDS011;6994;49.752;6.094;2023-09-19T03:10:21;4.43;;;1.73;;
13847;SDS011;6994;49.752;6.094;2023-09-19T03:12:49;1.67;;;1.35;;
13847;SDS011;6994;49.752;6.094;2023-09-19T03:15:16;3.85;;;2.08;;
13847;SDS011;6994;49.752;6.094;2023-09-19T03:17:43;4.28;;;1.23;;
13847;SDS011;6994;49.752;6.094;2023-09-19T03:20:10;6.47;;;1.62;;
13847;SDS011;6994;49.752;6.094;2023-09-19T03:22:37;7.60;;;1.60;;
13847;SDS011;6994;49.752;6.094;2023-09-19T03:25:05;6.43;;;2.17;;
13847;SDS011;6994;49.752;6.094;2023-09-19T03:27:32;3.08;;;2.05;;
13847;SDS011;6994;49.752;6.094;2023-09-19T03:30:00;3.00;;;1.30;;
13847;SDS011;6994;49.752;6.094;2023-09-19T03:32:28;5.05;;;1.90;;
13847;SDS011;6994;49.752;6.094;2023-09-19T03:34:56;5.80;;;1.73;;
13847;SDS011;6994;49.752;6.094;2023-09-19T03:37:23;6.20;;;2.20;;
13847;SDS011;6994;49.752;6.094;2023-09-19T03:39:50;3.20;;;1.98;;
13847;SDS011;6994;49.752;6.094;2023-09-19T03:42:17;4.12;;;1.67;;
13847;SDS011;6994;49.752;6.094;2023-09-19T03:44:45;3.35;;;2.42;;
13847;SDS011;6994;49.752;6.094;2023-09-19T03:47:13;6.75;;;1.85;;
13847;SDS011;6994;49.752;6.094;2023-09-19T03:49:40;3.42;;;1.70;;
13847;SDS011;6994;49.752;6.094;2023-09-19T03:52:07;3.83;;;1.37;;
13847;SDS011;6994;49.752;6.094;2023-09-19T03:54:34;3.50;;;1.67;;
13847;SDS011;6994;49.752;6.094;2023-09-19T03:57:01;4.03;;;1.90;;
13847;SDS011;6994;49.752;6.094;2023-09-19T03:59:29;4.40;;;2.40;;
13847;SDS011;6994;49.752;6.094;2023-09-19T04:01:56;3.75;;;1.45;;
13847;SDS011;6994;49.752;6.094;2023-09-19T04:04:23;7.85;;;2.20;;
13847;SDS011;6994;49.752;6.094;2023-09-19T04:06:53;5.10;;;2.90;;
13847;SDS011;6994;49.752;6.094;2023-09-19T04:09:20;8.05;;;2.33;;
13847;SDS011;6994;49.752;6.094;2023-09-19T04:11:47;7.90;;;2.15;;
13847;SDS011;6994;49.752;6.094;2023-09-19T04:14:15;7.07;;;2.17;;
13847;SDS011;6994;49.752;6.094;2023-09-19T04:16:42;6.20;;;1.85;;
13847;SDS011;6994;49.752;6.094;2023-09-19T04:19:09;9.48;;;2.37;;
13847;SDS011;6994;49.752;6.094;2023-09-19T04:21:36;4.43;;;1.50;;
13847;SDS011;6994;49.752;6.094;2023-09-19T04:24:03;6.53;;;2.08;;
13847;SDS011;6994;49.752;6.094;2023-09-19T04:26:31;3.05;;;1.50;;
13847;SDS011;6994;49.752;6.094;2023-09-19T04:28:58;2.97;;;1.33;;
13847;SDS011;6994;49.752;6.094;2023-09-19T04:31:26;8.32;;;2.00;;
13847;SDS011;6994;49.752;6.094;2023-09-19T04:33:53;7.18;;;1.42;;
13847;SDS011;6994;49.752;6.094;2023-09-19T04:36:20;4.15;;;1.70;;
13847;SDS011;6994;49.752;6.094;2023-09-19T04:38:48;7.82;;;2.37;;
13847;SDS011;6994;49.752;6.094;2023-09-19T04:41:15;8.35;;;1.87;;
13847;SDS011;6994;49.752;6.094;2023-09-19T04:43:42;5.30;;;1.85;;
13847;SDS011;6994;49.752;6.094;2023-09-19T04:46:09;4.22;;;1.90;;
13847;SDS011;6994;49.752;6.094;2023-09-19T04:48:37;5.97;;;1.60;;
13847;SDS011;6994;49.752;6.094;2023-09-19T04:51:05;5.97;;;1.77;;
13847;SDS011;6994;49.752;6.094;2023-09-19T04:53:33;8.40;;;2.08;;
13847;SDS011;6994;49.752;6.094;2023-09-19T04:56:01;7.10;;;2.28;;
13847;SDS011;6994;49.752;6.094;2023-09-19T04:58:29;5.68;;;1.92;;
13847;SDS011;6994;49.752;6.094;2023-09-19T05:00:56;11.07;;;1.83;;
13847;SDS011;6994;49.752;6.094;2023-09-19T05:03:23;9.63;;;1.45;;
13847;SDS011;6994;49.752;6.094;2023-09-19T05:05:51;6.10;;;1.87;;
13847;SDS011;6994;49.752;6.094;2023-09-19T05:08:18;4.45;;;1.95;;
13847;SDS011;6994;49.752;6.094;2023-09-19T05:10:45;7.43;;;1.55;;
13847;SDS011;6994;49.752;6.094;2023-09-19T05:13:12;5.72;;;1.80;;
13847;SDS011;6994;49.752;6.094;2023-09-19T05:15:39;8.52;;;2.53;;
13847;SDS011;6994;49.752;6.094;2023-09-19T05:18:07;10.30;;;2.17;;
13847;SDS011;6994;49.752;6.094;2023-09-19T05:20:34;6.68;;;2.15;;
13847;SDS011;6994;49.752;6.094;2023-09-19T05:23:02;7.35;;;2.10;;
13847;SDS011;6994;49.752;6.094;2023-09-19T05:25:33;10.73;;;2.20;;
13847;SDS011;6994;49.752;6.094;2023-09-19T05:28:00;10.40;;;2.90;;
13847;SDS011;6994;49.752;6.094;2023-09-19T05:30:27;6.93;;;1.98;;
13847;SDS011;6994;49.752;6.094;2023-09-19T05:32:54;12.52;;;2.30;;
13847;SDS011;6994;49.752;6.094;2023-09-19T05:35:22;7.30;;;2.78;;
13847;SDS011;6994;49.752;6.094;2023-09-19T05:37:51;5.85;;;2.17;;
13847;SDS011;6994;49.752;6.094;2023-09-19T05:40:19;9.63;;;2.30;;
13847;SDS011;6994;49.752;6.094;2023-09-19T05:42:46;7.70;;;1.73;;
13847;SDS011;6994;49.752;6.094;2023-09-19T05:45:13;9.68;;;2.10;;
13847;SDS011;6994;49.752;6.094;2023-09-19T05:47:40;6.90;;;2.35;;
13847;SDS011;6994;49.752;6.094;2023-09-19T05:50:07;8.77;;;2.70;;
13847;SDS011;6994;49.752;6.094;2023-09-19T05:52:35;10.40;;;2.12;;
13847;SDS011;6994;49.752;6.094;2023-09-19T05:55:03;9.45;;;2.25;;
13847;SDS011;6994;49.752;6.094;2023-09-19T05:57:32;7.35;;;2.37;;
13847;SDS011;6994;49.752;6.094;2023-09-19T05:59:59;8.35;;;2.15;;
13847;SDS011;6994;49.752;6.094;2023-09-19T06:02:26;6.45;;;2.12;;
13847;SDS011;6994;49.752;6.094;2023-09-19T06:04:54;9.27;;;2.70;;
13847;SDS011;6994;49.752;6.094;2023-09-19T06:07:21;9.30;;;2.28;;
13847;SDS011;6994;49.752;6.094;2023-09-19T06:09:48;4.57;;;1.52;;
13847;SDS011;6994;49.752;6.094;2023-09-19T06:12:16;7.47;;;3.85;;
13847;SDS011;6994;49.752;6.094;2023-09-19T06:14:44;5.87;;;1.80;;
13847;SDS011;6994;49.752;6.094;2023-09-19T06:17:12;5.95;;;1.60;;
13847;SDS011;6994;49.752;6.094;2023-09-19T06:19:40;9.77;;;2.10;;
13847;SDS011;6994;49.752;6.094;2023-09-19T06:22:08;6.97;;;2.30;;
13847;SDS011;6994;49.752;6.094;2023-09-19T06:24:36;8.52;;;2.28;;
13847;SDS011;6994;49.752;6.094;2023-09-19T06:27:04;4.40;;;1.60;;
13847;SDS011;6994;49.752;6.094;2023-09-19T06:29:31;8.65;;;1.60;;
13847;SDS011;6994;49.752;6.094;2023-09-19T06:31:58;10.30;;;1.50;;
13847;SDS011;6994;49.752;6.094;2023-09-19T06:34:26;5.50;;;2.00;;
13847;SDS011;6994;49.752;6.094;2023-09-19T06:36:53;7.35;;;2.37;;
13847;SDS011;6994;49.752;6.094;2023-09-19T06:39:20;8.77;;;2.22;;
13847;SDS011;6994;49.752;6.094;2023-09-19T06:41:47;9.55;;;2.20;;
13847;SDS011;6994;49.752;6.094;2023-09-19T06:44:14;10.68;;;2.55;;
13847;SDS011;6994;49.752;6.094;2023-09-19T06:46:42;7.10;;;1.87;;
13847;SDS011;6994;49.752;6.094;2023-09-19T06:49:09;6.12;;;2.20;;
13847;SDS011;6994;49.752;6.094;2023-09-19T06:51:37;5.07;;;2.10;;
13847;SDS011;6994;49.752;6.094;2023-09-19T06:54:05;12.37;;;3.17;;
13847;SDS011;6994;49.752;6.094;2023-09-19T06:56:33;11.93;;;2.05;;
13847;SDS011;6994;49.752;6.094;2023-09-19T06:59:01;3.42;;;1.45;;
13847;SDS011;6994;49.752;6.094;2023-09-19T07:01:28;5.72;;;1.95;;
13847;SDS011;6994;49.752;6.094;2023-09-19T07:03:55;5.32;;;2.00;;
13847;SDS011;6994;49.752;6.094;2023-09-19T07:06:22;6.93;;;2.67;;
13847;SDS011;6994;49.752;6.094;2023-09-19T07:08:50;6.57;;;2.00;;
13847;SDS011;6994;49.752;6.094;2023-09-19T07:11:17;4.80;;;1.83;;
13847;SDS011;6994;49.752;6.094;2023-09-19T07:13:44;6.85;;;1.55;;
13847;SDS011;6994;49.752;6.094;2023-09-19T07:16:11;6.28;;;1.85;;
13847;SDS011;6994;49.752;6.094;2023-09-19T07:18:38;7.78;;;1.77;;
13847;SDS011;6994;49.752;6.094;2023-09-19T07:21:06;5.50;;;2.00;;
13847;SDS011;6994;49.752;6.094;2023-09-19T07:23:34;6.55;;;1.52;;
13847;SDS011;6994;49.752;6.094;2023-09-19T07:26:01;6.87;;;2.92;;
13847;SDS011;6994;49.752;6.094;2023-09-19T07:28:28;6.60;;;1.80;;
13847;SDS011;6994;49.752;6.094;2023-09-19T07:30:55;4.55;;;1.52;;
13847;SDS011;6994;49.752;6.094;2023-09-19T07:33:22;11.60;;;1.50;;
13847;SDS011;6994;49.752;6.094;2023-09-19T07:35:50;5.87;;;1.25;;
13847;SDS011;6994;49.752;6.094;2023-09-19T07:38:17;5.45;;;1.87;;
13847;SDS011;6994;49.752;6.094;2023-09-19T07:40:44;7.10;;;1.65;;
13847;SDS011;6994;49.752;6.094;2023-09-19T07:43:11;5.78;;;2.00;;
13847;SDS011;6994;49.752;6.094;2023-09-19T07:45:38;6.50;;;1.30;;
13847;SDS011;6994;49.752;6.094;2023-09-19T07:48:06;10.80;;;1.90;;
13847;SDS011;6994;49.752;6.094;2023-09-19T07:50:34;3.92;;;1.40;;
13847;SDS011;6994;49.752;6.094;2023-09-19T07:53:00;9.55;;;2.00;;
13847;SDS011;6994;49.752;6.094;2023-09-19T07:55:27;6.37;;;1.33;;
13847;SDS011;6994;49.752;6.094;2023-09-19T07:57:55;8.45;;;1.40;;
13847;SDS011;6994;49.752;6.094;2023-09-19T08:00:22;6.62;;;1.50;;
13847;SDS011;6994;49.752;6.094;2023-09-19T08:02:50;8.77;;;1.62;;
13847;SDS011;6994;49.752;6.094;2023-09-19T08:05:17;3.33;;;1.40;;
13847;SDS011;6994;49.752;6.094;2023-09-19T08:07:44;5.03;;;1.52;;
13847;SDS011;6994;49.752;6.094;2023-09-19T08:10:17;6.68;;;2.17;;
13847;SDS011;6994;49.752;6.094;2023-09-19T08:12:45;9.50;;;1.65;;
13847;SDS011;6994;49.752;6.094;2023-09-19T08:15:16;4.70;;;1.42;;
13847;SDS011;6994;49.752;6.094;2023-09-19T08:17:42;8.35;;;1.90;;
13847;SDS011;6994;49.752;6.094;2023-09-19T08:20:10;8.68;;;1.60;;
13847;SDS011;6994;49.752;6.094;2023-09-19T08:22:52;2.58;;;1.37;;
13847;SDS011;6994;49.752;6.094;2023-09-19T08:25:19;6.28;;;1.92;;
13847;SDS011;6994;49.752;6.094;2023-09-19T08:27:46;9.82;;;1.75;;
13847;SDS011;6994;49.752;6.094;2023-09-19T08:30:14;9.25;;;2.00;;
13847;SDS011;6994;49.752;6.094;2023-09-19T08:32:40;7.37;;;1.75;;
13847;SDS011;6994;49.752;6.094;2023-09-19T08:35:08;3.58;;;2.00;;
13847;SDS011;6994;49.752;6.094;2023-09-19T08:37:35;5.32;;;1.50;;
13847;SDS011;6994;49.752;6.094;2023-09-19T08:40:02;8.25;;;1.70;;
13847;SDS011;6994;49.752;6.094;2023-09-19T08:42:29;2.72;;;1.73;;
13847;SDS011;6994;49.752;6.094;2023-09-19T08:44:56;7.05;;;1.67;;
13847;SDS011;6994;49.752;6.094;2023-09-19T08:47:34;7.80;;;1.98;;
13847;SDS011;6994;49.752;6.094;2023-09-19T08:49:58;8.18;;;2.15;;
13847;SDS011;6994;49.752;6.094;2023-09-19T08:52:27;5.82;;;1.58;;
13847;SDS011;6994;49.752;6.094;2023-09-19T08:54:55;11.60;;;2.30;;
13847;SDS011;6994;49.752;6.094;2023-09-19T08:57:21;4.15;;;1.58;;
13847;SDS011;6994;49.752;6.094;2023-09-19T08:59:48;7.50;;;1.90;;
13847;SDS011;6994;49.752;6.094;2023-09-19T09:02:16;7.20;;;1.62;;
13847;SDS011;6994;49.752;6.094;2023-09-19T09:04:44;10.15;;;1.62;;
13847;SDS011;6994;49.752;6.094;2023-09-19T09:07:12;8.23;;;1.52;;
13847;SDS011;6994;49.752;6.094;2023-09-19T09:09:42;7.03;;;1.95;;
13847;SDS011;6994;49.752;6.094;2023-09-19T09:12:12;4.25;;;1.50;;
13847;SDS011;6994;49.752;6.094;2023-09-19T09:14:45;7.43;;;1.95;;
13847;SDS011;6994;49.752;6.094;2023-09-19T09:17:12;8.30;;;1.73;;
13847;SDS011;6994;49.752;6.094;2023-09-19T09:19:39;11.55;;;1.45;;
13847;SDS011;6994;49.752;6.094;2023-09-19T09:22:10;8.02;;;1.37;;
13847;SDS011;6994;49.752;6.094;2023-09-19T09:24:36;9.02;;;1.17;;
13847;SDS011;6994;49.752;6.094;2023-09-19T09:27:04;10.10;;;1.90;;
13847;SDS011;6994;49.752;6.094;2023-09-19T09:29:44;5.40;;;1.17;;
13847;SDS011;6994;49.752;6.094;2023-09-19T09:32:26;2.78;;;0.90;;
13847;SDS011;6994;49.752;6.094;2023-09-19T09:34:53;5.40;;;1.48;;
13847;SDS011;6994;49.752;6.094;2023-09-19T09:37:20;6.55;;;1.77;;
13847;SDS011;6994;49.752;6.094;2023-09-19T09:39:57;5.35;;;1.17;;
13847;SDS011;6994;49.752;6.094;2023-09-19T09:42:30;5.65;;;1.62;;
13847;SDS011;6994;49.752;6.094;2023-09-19T09:48:01;4.90;;;1.15;;
13847;SDS011;6994;49.752;6.094;2023-09-19T09:50:31;4.62;;;1.50;;
13847;SDS011;6994;49.752;6.094;2023-09-19T09:56:08;6.30;;;1.67;;
13847;SDS011;6994;49.752;6.094;2023-09-19T09:58:54;3.80;;;0.98;;
13847;SDS011;6994;49.752;6.094;2023-09-19T10:01:04;3.60;;;0.90;;
13847;SDS011;6994;49.752;6.094;2023-09-19T10:03:38;6.28;;;1.40;;
13847;SDS011;6994;49.752;6.094;2023-09-19T10:06:09;4.22;;;1.05;;
13847;SDS011;6994;49.752;6.094;2023-09-19T10:09:03;2.55;;;0.93;;
13847;SDS011;6994;49.752;6.094;2023-09-19T10:11:32;6.20;;;1.23;;
13847;SDS011;6994;49.752;6.094;2023-09-19T10:14:00;4.53;;;0.95;;
13847;SDS011;6994;49.752;6.094;2023-09-19T10:16:29;5.22;;;1.25;;
13847;SDS011;6994;49.752;6.094;2023-09-19T10:18:55;3.17;;;0.90;;
13847;SDS011;6994;49.752;6.094;2023-09-19T10:21:22;9.93;;;1.37;;
13847;SDS011;6994;49.752;6.094;2023-09-19T10:23:49;3.35;;;1.20;;
13847;SDS011;6994;49.752;6.094;2023-09-19T10:26:17;6.07;;;1.27;;
13847;SDS011;6994;49.752;6.094;2023-09-19T10:28:45;3.35;;;0.77;;
13847;SDS011;6994;49.752;6.094;2023-09-19T10:31:11;5.82;;;1.37;;
13847;SDS011;6994;49.752;6.094;2023-09-19T10:33:38;6.25;;;1.40;;
13847;SDS011;6994;49.752;6.094;2023-09-19T10:36:05;7.47;;;0.93;;
13847;SDS011;6994;49.752;6.094;2023-09-19T10:38:32;4.20;;;1.02;;
13847;SDS011;6994;49.752;6.094;2023-09-19T10:41:00;4.65;;;2.00;;
13847;SDS011;6994;49.752;6.094;2023-09-19T10:43:30;3.72;;;1.55;;
13847;SDS011;6994;49.752;6.094;2023-09-19T10:46:00;6.50;;;1.27;;
13847;SDS011;6994;49.752;6.094;2023-09-19T10:48:28;5.55;;;1.10;;
13847;SDS011;6994;49.752;6.094;2023-09-19T10:51:12;4.50;;;1.35;;
13847;SDS011;6994;49.752;6.094;2023-09-19T10:53:46;5.53;;;1.37;;
13847;SDS011;6994;49.752;6.094;2023-09-19T10:56:15;3.97;;;1.05;;
13847;SDS011;6994;49.752;6.094;2023-09-19T10:58:39;1.60;;;1.00;;
13847;SDS011;6994;49.752;6.094;2023-09-19T11:01:06;2.92;;;1.10;;
13847;SDS011;6994;49.752;6.094;2023-09-19T11:03:33;2.28;;;0.65;;
13847;SDS011;6994;49.752;6.094;2023-09-19T11:06:11;6.62;;;1.35;;
13847;SDS011;6994;49.752;6.094;2023-09-19T11:08:56;5.15;;;1.30;;
13847;SDS011;6994;49.752;6.094;2023-09-19T11:11:57;6.22;;;1.70;;
13847;SDS011;6994;49.752;6.094;2023-09-19T11:14:16;3.40;;;1.20;;
13847;SDS011;6994;49.752;6.094;2023-09-19T11:30:43;2.80;;;1.17;;
13847;SDS011;6994;49.752;6.094;2023-09-19T11:43:49;2.33;;;1.10;;
13847;SDS011;6994;49.752;6.094;2023-09-19T11:46:16;2.50;;;1.20;;
13847;SDS011;6994;49.752;6.094;2023-09-19T11:48:43;2.60;;;1.10;;
13847;SDS011;6994;49.752;6.094;2023-09-19T11:51:17;1.98;;;1.00;;
13847;SDS011;6994;49.752;6.094;2023-09-19T11:53:40;2.97;;;1.08;;
13847;SDS011;6994;49.752;6.094;2023-09-19T11:56:08;2.10;;;1.00;;
13847;SDS011;6994;49.752;6.094;2023-09-19T11:58:36;3.53;;;1.20;;
13847;SDS011;6994;49.752;6.094;2023-09-19T12:01:03;3.10;;;0.95;;
13847;SDS011;6994;49.752;6.094;2023-09-19T12:03:30;4.80;;;1.10;;
13847;SDS011;6994;49.752;6.094;2023-09-19T12:05:58;1.90;;;1.08;;
13847;SDS011;6994;49.752;6.094;2023-09-19T12:08:24;2.65;;;1.40;;
13847;SDS011;6994;49.752;6.094;2023-09-19T12:10:51;2.67;;;1.00;;
13847;SDS011;6994;49.752;6.094;2023-09-19T12:13:19;5.35;;;1.35;;
13847;SDS011;6994;49.752;6.094;2023-09-19T12:15:46;4.12;;;1.23;;
13847;SDS011;6994;49.752;6.094;2023-09-19T12:18:29;3.40;;;1.50;;
13847;SDS011;6994;49.752;6.094;2023-09-19T12:20:53;2.97;;;1.33;;
13847;SDS011;6994;49.752;6.094;2023-09-19T12:23:20;3.62;;;1.05;;
13847;SDS011;6994;49.752;6.094;2023-09-19T12:25:47;2.17;;;0.90;;
13847;SDS011;6994;49.752;6.094;2023-09-19T12:28:14;1.83;;;1.05;;
13847;SDS011;6994;49.752;6.094;2023-09-19T12:30:41;3.25;;;1.23;;
13847;SDS011;6994;49.752;6.094;2023-09-19T12:33:19;3.42;;;0.90;;
13847;SDS011;6994;49.752;6.094;2023-09-19T12:35:49;2.45;;;1.08;;
13847;SDS011;6994;49.752;6.094;2023-09-19T12:38:24;2.08;;;1.08;;
13847;SDS011;6994;49.752;6.094;2023-09-19T12:40:50;2.65;;;0.90;;
13847;SDS011;6994;49.752;6.094;2023-09-19T12:43:18;2.15;;;1.17;;
13847;SDS011;6994;49.752;6.094;2023-09-19T12:45:44;3.67;;;1.45;;
13847;SDS011;6994;49.752;6.094;2023-09-19T12:51:06;1.87;;;1.05;;
13847;SDS011;6994;49.752;6.094;2023-09-19T12:53:37;2.78;;;0.98;;
13847;SDS011;6994;49.752;6.094;2023-09-19T12:56:09;2.75;;;1.10;;
13847;SDS011;6994;49.752;6.094;2023-09-19T12:58:58;2.33;;;0.98;;
13847;SDS011;6994;49.752;6.094;2023-09-19T13:01:22;2.53;;;1.30;;
13847;SDS011;6994;49.752;6.094;2023-09-19T13:06:40;2.10;;;1.30;;
13847;SDS011;6994;49.752;6.094;2023-09-19T13:09:08;3.83;;;1.00;;
13847;SDS011;6994;49.752;6.094;2023-09-19T13:11:38;2.05;;;1.10;;
13847;SDS011;6994;49.752;6.094;2023-09-19T13:24:52;2.42;;;0.90;;
13847;SDS011;6994;49.752;6.094;2023-09-19T13:27:19;4.72;;;1.12;;
13847;SDS011;6994;49.752;6.094;2023-09-19T13:29:46;2.33;;;0.80;;
13847;SDS011;6994;49.752;6.094;2023-09-19T13:32:14;3.25;;;1.20;;
13847;SDS011;6994;49.752;6.094;2023-09-19T13:34:41;3.12;;;1.15;;
13847;SDS011;6994;49.752;6.094;2023-09-19T13:37:08;2.40;;;1.48;;
13847;SDS011;6994;49.752;6.094;2023-09-19T13:39:36;1.75;;;0.73;;
13847;SDS011;6994;49.752;6.094;2023-09-19T13:42:04;3.05;;;1.20;;
13847;SDS011;6994;49.752;6.094;2023-09-19T13:44:32;2.97;;;1.20;;
13847;SDS011;6994;49.752;6.094;2023-09-19T13:47:00;3.78;;;0.90;;
13847;SDS011;6994;49.752;6.094;2023-09-19T13:49:27;3.60;;;1.12;;
13847;SDS011;6994;49.752;6.094;2023-09-19T13:51:54;2.83;;;1.08;;
13847;SDS011;6994;49.752;6.094;2023-09-19T13:54:21;1.37;;;0.75;;
13847;SDS011;6994;49.752;6.094;2023-09-19T13:56:49;2.70;;;1.12;;
13847;SDS011;6994;49.752;6.094;2023-09-19T13:59:16;3.30;;;1.40;;
13847;SDS011;6994;49.752;6.094;2023-09-19T14:01:43;2.20;;;1.10;;
13847;SDS011;6994;49.752;6.094;2023-09-19T14:04:10;1.17;;;1.05;;
13847;SDS011;6994;49.752;6.094;2023-09-19T14:06:38;2.78;;;0.90;;
13847;SDS011;6994;49.752;6.094;2023-09-19T14:09:05;2.05;;;0.98;;
13847;SDS011;6994;49.752;6.094;2023-09-19T14:11:32;2.75;;;0.98;;
13847;SDS011;6994;49.752;6.094;2023-09-19T14:13:59;3.28;;;1.40;;
13847;SDS011;6994;49.752;6.094;2023-09-19T14:16:27;1.33;;;0.88;;
13847;SDS011;6994;49.752;6.094;2023-09-19T14:18:55;1.45;;;0.82;;
13847;SDS011;6994;49.752;6.094;2023-09-19T14:21:23;3.22;;;0.90;;
13847;SDS011;6994;49.752;6.094;2023-09-19T14:23:51;3.22;;;0.95;;
13847;SDS011;6994;49.752;6.094;2023-09-19T14:26:18;2.40;;;1.00;;
13847;SDS011;6994;49.752;6.094;2023-09-19T14:28:45;2.65;;;1.02;;
13847;SDS011;6994;49.752;6.094;2023-09-19T14:31:13;3.85;;;1.50;;
13847;SDS011;6994;49.752;6.094;2023-09-19T14:33:40;3.30;;;1.30;;
13847;SDS011;6994;49.752;6.094;2023-09-19T14:36:08;4.10;;;1.40;;
13847;SDS011;6994;49.752;6.094;2023-09-19T14:38:35;4.15;;;1.25;;
13847;SDS011;6994;49.752;6.094;2023-09-19T14:41:02;3.08;;;1.20;;
13847;SDS011;6994;49.752;6.094;2023-09-19T14:43:29;1.55;;;1.00;;
13847;SDS011;6994;49.752;6.094;2023-09-19T14:45:56;1.83;;;0.98;;
13847;SDS011;6994;49.752;6.094;2023-09-19T14:48:23;1.75;;;0.90;;
13847;SDS011;6994;49.752;6.094;2023-09-19T14:50:51;3.85;;;1.15;;
13847;SDS011;6994;49.752;6.094;2023-09-19T14:53:19;3.47;;;0.95;;
13847;SDS011;6994;49.752;6.094;2023-09-19T14:55:46;1.73;;;1.00;;
13847;SDS011;6994;49.752;6.094;2023-09-19T14:58:14;2.50;;;0.98;;
13847;SDS011;6994;49.752;6.094;2023-09-19T15:00:41;1.60;;;0.80;;
13847;SDS011;6994;49.752;6.094;2023-09-19T15:03:08;3.60;;;1.05;;
13847;SDS011;6994;49.752;6.094;2023-09-19T15:05:36;1.58;;;0.80;;
13847;SDS011;6994;49.752;6.094;2023-09-19T15:08:03;3.03;;;0.98;;
13847;SDS011;6994;49.752;6.094;2023-09-19T15:10:30;1.48;;;1.10;;
13847;SDS011;6994;49.752;6.094;2023-09-19T15:12:58;5.00;;;0.95;;
13847;SDS011;6994;49.752;6.094;2023-09-19T15:15:25;2.42;;;0.80;;
13847;SDS011;6994;49.752;6.094;2023-09-19T15:17:52;1.73;;;0.90;;
13847;SDS011;6994;49.752;6.094;2023-09-19T15:20:20;4.00;;;1.30;;
13847;SDS011;6994;49.752;6.094;2023-09-19T15:22:47;3.05;;;1.00;;
13847;SDS011;6994;49.752;6.094;2023-09-19T15:25:14;2.75;;;1.00;;
13847;SDS011;6994;49.752;6.094;2023-09-19T15:27:41;1.60;;;1.10;;
13847;SDS011;6994;49.752;6.094;2023-09-19T15:30:08;3.42;;;1.20;;
13847;SDS011;6994;49.752;6.094;2023-09-19T15:32:36;1.42;;;1.20;;
13847;SDS011;6994;49.752;6.094;2023-09-19T15:35:03;1.92;;;1.20;;
13847;SDS011;6994;49.752;6.094;2023-09-19T15:37:30;3.00;;;1.20;;
13847;SDS011;6994;49.752;6.094;2023-09-19T15:39:57;1.62;;;0.90;;
13847;SDS011;6994;49.752;6.094;2023-09-19T15:42:24;4.00;;;1.00;;
13847;SDS011;6994;49.752;6.094;2023-09-19T15:44:52;1.95;;;0.80;;
13847;SDS011;6994;49.752;6.094;2023-09-19T15:47:20;1.55;;;0.90;;
13847;SDS011;6994;49.752;6.094;2023-09-19T15:49:48;2.97;;;1.00;;
13847;SDS011;6994;49.752;6.094;2023-09-19T15:52:16;2.17;;;0.90;;
13847;SDS011;6994;49.752;6.094;2023-09-19T15:54:42;2.75;;;0.95;;
13847;SDS011;6994;49.752;6.094;2023-09-19T15:57:10;2.10;;;1.30;;
13847;SDS011;6994;49.752;6.094;2023-09-19T15:59:38;2.25;;;1.00;;
13847;SDS011;6994;49.752;6.094;2023-09-19T16:02:06;3.30;;;0.93;;
13847;SDS011;6994;49.752;6.094;2023-09-19T16:04:34;1.98;;;1.30;;
13847;SDS011;6994;49.752;6.094;2023-09-19T16:07:02;1.52;;;1.08;;